Terminal Aerodrome Forecast
Issued by NWS

Home | Current Version | Previous Version | Text Only | Print | Product List | Glossary On
Versions: 1 2 3 4 5 6 7 8 9 10 11 12 13 14 15 16 17 18 19 20 21 22 23 24 25 26 27 28 29 30
000
FTUS45 KTFX 232335
TAFGTF
TAF
KGTF 232335Z 2400/2424 25020G30KT P6SM SCT070 BKN150
     FM240300 25011G18KT P6SM BKN070
     FM241500 26015G22KT P6SM SCT070 SCT250=

USA.gov is the U.S. government's official web portal to all federal, state and local government web resources and services.